sensor_id;sensor_type;location;lat;lon;timestamp;P1;durP1;ratioP1;P2;durP2;ratioP2
74483;SDS011;62942;52.462;10.846;2023-04-20T00:00:29;6.8;;;15.1;;
74483;SDS011;62942;52.462;10.846;2023-04-20T00:01:29;7.4;;;15.9;;
74483;SDS011;62942;52.462;10.846;2023-04-20T00:02:39;6.8;;;13.7;;
74483;SDS011;62942;52.462;10.846;2023-04-20T00:03:39;6.6;;;12.2;;
74483;SDS011;62942;52.462;10.846;2023-04-20T00:04:48;6.7;;;12.5;;
74483;SDS011;62942;52.462;10.846;2023-04-20T00:05:49;6.8;;;13;;
74483;SDS011;62942;52.462;10.846;2023-04-20T00:06:58;6.8;;;13;;
74483;SDS011;62942;52.462;10.846;2023-04-20T00:08:08;6.7;;;11.7;;
74483;SDS011;62942;52.462;10.846;2023-04-20T00:09:09;7.3;;;14.5;;
74483;SDS011;62942;52.462;10.846;2023-04-20T00:10:19;7.2;;;13.7;;
74483;SDS011;62942;52.462;10.846;2023-04-20T00:11:29;7;;;15.2;;
74483;SDS011;62942;52.462;10.846;2023-04-20T00:12:29;6.8;;;13.6;;
74483;SDS011;62942;52.462;10.846;2023-04-20T00:13:38;6.8;;;13.1;;
74483;SDS011;62942;52.462;10.846;2023-04-20T00:14:38;6.6;;;12.2;;
74483;SDS011;62942;52.462;10.846;2023-04-20T00:15:48;6.7;;;13.3;;
74483;SDS011;62942;52.462;10.846;2023-04-20T00:16:49;7.1;;;13.1;;
74483;SDS011;62942;52.462;10.846;2023-04-20T00:17:58;6.8;;;13;;
74483;SDS011;62942;52.462;10.846;2023-04-20T00:18:59;6.9;;;12.6;;
74483;SDS011;62942;52.462;10.846;2023-04-20T00:20:09;6.7;;;12.5;;
74483;SDS011;62942;52.462;10.846;2023-04-20T00:21:09;6.7;;;14.5;;
74483;SDS011;62942;52.462;10.846;2023-04-20T00:22:18;6.7;;;12.4;;
74483;SDS011;62942;52.462;10.846;2023-04-20T00:23:18;7.1;;;13;;
74483;SDS011;62942;52.462;10.846;2023-04-20T00:24:28;7;;;14.3;;
74483;SDS011;62942;52.462;10.846;2023-04-20T00:25:28;6.8;;;12.2;;
74483;SDS011;62942;52.462;10.846;2023-04-20T00:26:38;7.1;;;11.8;;
74483;SDS011;62942;52.462;10.846;2023-04-20T00:27:38;7.3;;;14.1;;
74483;SDS011;62942;52.462;10.846;2023-04-20T00:28:49;7;;;13.2;;
74483;SDS011;62942;52.462;10.846;2023-04-20T00:29:48;7.3;;;13.9;;
74483;SDS011;62942;52.462;10.846;2023-04-20T00:30:58;7;;;13.1;;
74483;SDS011;62942;52.462;10.846;2023-04-20T00:31:58;7.3;;;13.5;;
74483;SDS011;62942;52.462;10.846;2023-04-20T00:33:08;7.1;;;12.4;;
74483;SDS011;62942;52.462;10.846;2023-04-20T00:34:19;7.1;;;13.4;;
74483;SDS011;62942;52.462;10.846;2023-04-20T00:35:18;7.3;;;13.9;;
74483;SDS011;62942;52.462;10.846;2023-04-20T00:36:28;7.2;;;14.4;;
74483;SDS011;62942;52.462;10.846;2023-04-20T00:37:28;7.2;;;14.3;;
74483;SDS011;62942;52.462;10.846;2023-04-20T00:38:39;7.1;;;15.9;;
74483;SDS011;62942;52.462;10.846;2023-04-20T00:39:48;7.1;;;14.1;;
74483;SDS011;62942;52.462;10.846;2023-04-20T00:40:48;7;;;13.7;;
74483;SDS011;62942;52.462;10.846;2023-04-20T00:41:49;7.5;;;13;;
74483;SDS011;62942;52.462;10.846;2023-04-20T00:43:07;6.8;;;13.9;;
74483;SDS011;62942;52.462;10.846;2023-04-20T00:44:08;7.4;;;14.5;;
74483;SDS011;62942;52.462;10.846;2023-04-20T00:45:09;7.2;;;14.1;;
74483;SDS011;62942;52.462;10.846;2023-04-20T00:46:19;7.3;;;14.7;;
74483;SDS011;62942;52.462;10.846;2023-04-20T00:47:18;7.3;;;13.6;;
74483;SDS011;62942;52.462;10.846;2023-04-20T00:48:28;7.4;;;15.8;;
74483;SDS011;62942;52.462;10.846;2023-04-20T00:49:29;7.5;;;14.7;;
74483;SDS011;62942;52.462;10.846;2023-04-20T00:50:39;7;;;14.8;;
74483;SDS011;62942;52.462;10.846;2023-04-20T00:51:48;7.4;;;14.3;;
74483;SDS011;62942;52.462;10.846;2023-04-20T00:52:48;7.7;;;13.7;;
74483;SDS011;62942;52.462;10.846;2023-04-20T00:53:58;7.6;;;14.8;;
74483;SDS011;62942;52.462;10.846;2023-04-20T00:55:09;7.9;;;15.6;;
74483;SDS011;62942;52.462;10.846;2023-04-20T00:56:18;7.7;;;15.1;;
74483;SDS011;62942;52.462;10.846;2023-04-20T00:57:18;7.3;;;15.4;;
74483;SDS011;62942;52.462;10.846;2023-04-20T00:58:28;7.9;;;15.3;;
74483;SDS011;62942;52.462;10.846;2023-04-20T00:59:38;7.8;;;14.7;;
74483;SDS011;62942;52.462;10.846;2023-04-20T01:00:38;8;;;16.2;;
74483;SDS011;62942;52.462;10.846;2023-04-20T01:01:48;7.5;;;15.8;;
74483;SDS011;62942;52.462;10.846;2023-04-20T01:02:58;7.6;;;15.9;;
74483;SDS011;62942;52.462;10.846;2023-04-20T01:03:58;7.6;;;16.5;;
74483;SDS011;62942;52.462;10.846;2023-04-20T01:05:08;8.2;;;16.7;;
74483;SDS011;62942;52.462;10.846;2023-04-20T01:06:18;7.7;;;15;;
74483;SDS011;62942;52.462;10.846;2023-04-20T01:07:18;7.8;;;15.7;;
74483;SDS011;62942;52.462;10.846;2023-04-20T01:08:28;7.7;;;14;;
74483;SDS011;62942;52.462;10.846;2023-04-20T01:09:28;7.9;;;16.5;;
74483;SDS011;62942;52.462;10.846;2023-04-20T01:10:38;7.8;;;14.9;;
74483;SDS011;62942;52.462;10.846;2023-04-20T01:11:48;7.8;;;14.5;;
74483;SDS011;62942;52.462;10.846;2023-04-20T01:12:48;7.8;;;14.9;;
74483;SDS011;62942;52.462;10.846;2023-04-20T01:13:59;8;;;14.2;;
74483;SDS011;62942;52.462;10.846;2023-04-20T01:14:58;7.5;;;15.2;;
74483;SDS011;62942;52.462;10.846;2023-04-20T01:16:09;7.8;;;15.5;;
74483;SDS011;62942;52.462;10.846;2023-04-20T01:17:19;7.4;;;15.5;;
74483;SDS011;62942;52.462;10.846;2023-04-20T01:18:18;7.9;;;16;;
74483;SDS011;62942;52.462;10.846;2023-04-20T01:19:28;7.8;;;14.2;;
74483;SDS011;62942;52.462;10.846;2023-04-20T01:20:28;7.8;;;14.5;;
74483;SDS011;62942;52.462;10.846;2023-04-20T01:21:39;7.6;;;14.9;;
74483;SDS011;62942;52.462;10.846;2023-04-20T01:22:43;7.6;;;14.4;;
74483;SDS011;62942;52.462;10.846;2023-04-20T01:23:48;8;;;16;;
74483;SDS011;62942;52.462;10.846;2023-04-20T01:24:58;7.7;;;14.5;;
74483;SDS011;62942;52.462;10.846;2023-04-20T01:26:10;7.6;;;15.7;;
74483;SDS011;62942;52.462;10.846;2023-04-20T01:27:18;7.5;;;12.9;;
74483;SDS011;62942;52.462;10.846;2023-04-20T01:28:18;7.9;;;16.9;;
74483;SDS011;62942;52.462;10.846;2023-04-20T01:29:28;7.5;;;14.4;;
74483;SDS011;62942;52.462;10.846;2023-04-20T01:30:29;7.8;;;14.8;;
74483;SDS011;62942;52.462;10.846;2023-04-20T01:31:38;7.6;;;15.1;;
74483;SDS011;62942;52.462;10.846;2023-04-20T01:32:48;7.4;;;14.3;;
74483;SDS011;62942;52.462;10.846;2023-04-20T01:33:58;7.6;;;15.4;;
74483;SDS011;62942;52.462;10.846;2023-04-20T01:35:08;7.8;;;17.2;;
74483;SDS011;62942;52.462;10.846;2023-04-20T01:36:08;8;;;15.1;;
74483;SDS011;62942;52.462;10.846;2023-04-20T01:37:18;7.6;;;15.9;;
74483;SDS011;62942;52.462;10.846;2023-04-20T01:38:29;8;;;17.1;;
74483;SDS011;62942;52.462;10.846;2023-04-20T01:39:28;8;;;15.2;;
74483;SDS011;62942;52.462;10.846;2023-04-20T01:40:38;8;;;16.8;;
74483;SDS011;62942;52.462;10.846;2023-04-20T01:41:38;7.8;;;12.9;;
74483;SDS011;62942;52.462;10.846;2023-04-20T01:42:48;8;;;16.3;;
74483;SDS011;62942;52.462;10.846;2023-04-20T01:43:58;8;;;15.4;;
74483;SDS011;62942;52.462;10.846;2023-04-20T01:44:58;7.6;;;16.1;;
74483;SDS011;62942;52.462;10.846;2023-04-20T01:46:08;7.7;;;13.7;;
74483;SDS011;62942;52.462;10.846;2023-04-20T01:47:18;8.1;;;13;;
74483;SDS011;62942;52.462;10.846;2023-04-20T01:48:18;7.5;;;15;;
74483;SDS011;62942;52.462;10.846;2023-04-20T01:49:28;8.1;;;17.2;;
74483;SDS011;62942;52.462;10.846;2023-04-20T01:50:38;8.3;;;16.4;;
74483;SDS011;62942;52.462;10.846;2023-04-20T01:51:48;8;;;14.7;;
74483;SDS011;62942;52.462;10.846;2023-04-20T01:52:58;8.4;;;17.1;;
74483;SDS011;62942;52.462;10.846;2023-04-20T01:53:59;8.3;;;14.6;;
74483;SDS011;62942;52.462;10.846;2023-04-20T01:55:08;8.1;;;15.9;;
74483;SDS011;62942;52.462;10.846;2023-04-20T01:56:18;8;;;15.2;;
74483;SDS011;62942;52.462;10.846;2023-04-20T01:57:28;8.5;;;16.5;;
74483;SDS011;62942;52.462;10.846;2023-04-20T01:58:38;8.5;;;14.7;;
74483;SDS011;62942;52.462;10.846;2023-04-20T01:59:38;8.9;;;15.8;;
74483;SDS011;62942;52.462;10.846;2023-04-20T02:00:48;8.4;;;16.3;;
74483;SDS011;62942;52.462;10.846;2023-04-20T02:01:58;8.6;;;15.4;;
74483;SDS011;62942;52.462;10.846;2023-04-20T02:02:58;8.3;;;16;;
74483;SDS011;62942;52.462;10.846;2023-04-20T02:04:08;8.6;;;17.6;;
74483;SDS011;62942;52.462;10.846;2023-04-20T02:05:18;8.6;;;16.2;;
74483;SDS011;62942;52.462;10.846;2023-04-20T02:06:28;8.6;;;20.5;;
74483;SDS011;62942;52.462;10.846;2023-04-20T02:07:38;8.6;;;15.1;;
74483;SDS011;62942;52.462;10.846;2023-04-20T02:08:38;8.7;;;15.6;;
74483;SDS011;62942;52.462;10.846;2023-04-20T02:09:48;8.8;;;15.7;;
74483;SDS011;62942;52.462;10.846;2023-04-20T02:10:58;8.9;;;15.8;;
74483;SDS011;62942;52.462;10.846;2023-04-20T02:11:58;8.6;;;16.3;;
74483;SDS011;62942;52.462;10.846;2023-04-20T02:13:08;8.4;;;16.4;;
74483;SDS011;62942;52.462;10.846;2023-04-20T02:14:18;8.2;;;14;;
74483;SDS011;62942;52.462;10.846;2023-04-20T02:15:28;8.2;;;14.1;;
74483;SDS011;62942;52.462;10.846;2023-04-20T02:16:38;8.5;;;17.1;;
74483;SDS011;62942;52.462;10.846;2023-04-20T02:17:48;8.5;;;17.3;;
74483;SDS011;62942;52.462;10.846;2023-04-20T02:18:58;8.3;;;14.9;;
74483;SDS011;62942;52.462;10.846;2023-04-20T02:20:09;8.3;;;16.6;;
74483;SDS011;62942;52.462;10.846;2023-04-20T02:21:18;8.3;;;15.3;;
74483;SDS011;62942;52.462;10.846;2023-04-20T02:22:18;8.7;;;16.7;;
74483;SDS011;62942;52.462;10.846;2023-04-20T02:23:28;8.5;;;15;;
74483;SDS011;62942;52.462;10.846;2023-04-20T02:24:38;9;;;17.6;;
74483;SDS011;62942;52.462;10.846;2023-04-20T02:25:48;8.4;;;15.1;;
74483;SDS011;62942;52.462;10.846;2023-04-20T02:26:58;8.3;;;15.5;;
74483;SDS011;62942;52.462;10.846;2023-04-20T02:28:08;8.7;;;18.8;;
74483;SDS011;62942;52.462;10.846;2023-04-20T02:29:08;8.5;;;16;;
74483;SDS011;62942;52.462;10.846;2023-04-20T02:30:18;8.4;;;16.6;;
74483;SDS011;62942;52.462;10.846;2023-04-20T02:31:28;8.5;;;16.8;;
74483;SDS011;62942;52.462;10.846;2023-04-20T02:32:38;8.6;;;14.8;;
74483;SDS011;62942;52.462;10.846;2023-04-20T02:33:48;8.3;;;16.8;;
74483;SDS011;62942;52.462;10.846;2023-04-20T02:34:48;8.5;;;15.1;;
74483;SDS011;62942;52.462;10.846;2023-04-20T02:35:58;8.9;;;17.6;;
74483;SDS011;62942;52.462;10.846;2023-04-20T02:37:08;8.6;;;16.6;;
74483;SDS011;62942;52.462;10.846;2023-04-20T02:38:08;8.9;;;17.5;;
74483;SDS011;62942;52.462;10.846;2023-04-20T02:39:08;8.7;;;17.2;;
74483;SDS011;62942;52.462;10.846;2023-04-20T02:40:18;8.4;;;16.2;;
74483;SDS011;62942;52.462;10.846;2023-04-20T02:41:28;8.6;;;15.9;;
74483;SDS011;62942;52.462;10.846;2023-04-20T02:42:28;8.9;;;16.5;;
74483;SDS011;62942;52.462;10.846;2023-04-20T02:43:38;8.6;;;16.7;;
74483;SDS011;62942;52.462;10.846;2023-04-20T02:44:48;8.8;;;18.2;;
74483;SDS011;62942;52.462;10.846;2023-04-20T02:45:58;8.5;;;15;;
74483;SDS011;62942;52.462;10.846;2023-04-20T02:46:58;9.1;;;16;;
74483;SDS011;62942;52.462;10.846;2023-04-20T02:48:08;8.9;;;16.2;;
74483;SDS011;62942;52.462;10.846;2023-04-20T02:49:18;8.8;;;16.1;;
74483;SDS011;62942;52.462;10.846;2023-04-20T02:50:18;8.6;;;13.9;;
74483;SDS011;62942;52.462;10.846;2023-04-20T02:51:28;8.9;;;17.5;;
74483;SDS011;62942;52.462;10.846;2023-04-20T02:52:38;8.8;;;16.9;;
74483;SDS011;62942;52.462;10.846;2023-04-20T02:53:38;8.5;;;15.7;;
74483;SDS011;62942;52.462;10.846;2023-04-20T02:54:48;8.3;;;15.1;;
74483;SDS011;62942;52.462;10.846;2023-04-20T02:55:48;8;;;15.1;;
74483;SDS011;62942;52.462;10.846;2023-04-20T02:56:58;8.4;;;16.3;;
74483;SDS011;62942;52.462;10.846;2023-04-20T02:58:08;8.1;;;14.8;;
74483;SDS011;62942;52.462;10.846;2023-04-20T02:59:08;8.3;;;15.9;;
74483;SDS011;62942;52.462;10.846;2023-04-20T03:00:18;8.7;;;16.4;;
74483;SDS011;62942;52.462;10.846;2023-04-20T03:01:18;8.3;;;14.6;;
74483;SDS011;62942;52.462;10.846;2023-04-20T03:02:28;8.5;;;16.5;;
74483;SDS011;62942;52.462;10.846;2023-04-20T03:03:28;8.5;;;19.1;;
74483;SDS011;62942;52.462;10.846;2023-04-20T03:04:38;8.4;;;16.8;;
74483;SDS011;62942;52.462;10.846;2023-04-20T03:05:48;8.6;;;17.2;;
74483;SDS011;62942;52.462;10.846;2023-04-20T03:06:48;8.2;;;13.9;;
74483;SDS011;62942;52.462;10.846;2023-04-20T03:07:58;8.4;;;14.2;;
74483;SDS011;62942;52.462;10.846;2023-04-20T03:09:08;8.5;;;15.8;;
74483;SDS011;62942;52.462;10.846;2023-04-20T03:10:08;8.3;;;16.8;;
74483;SDS011;62942;52.462;10.846;2023-04-20T03:11:18;8.5;;;14.6;;
74483;SDS011;62942;52.462;10.846;2023-04-20T03:12:28;8.3;;;15.5;;
74483;SDS011;62942;52.462;10.846;2023-04-20T03:13:38;8.4;;;18.7;;
74483;SDS011;62942;52.462;10.846;2023-04-20T03:14:48;8.2;;;15.2;;
74483;SDS011;62942;52.462;10.846;2023-04-20T03:15:58;8.2;;;14;;
74483;SDS011;62942;52.462;10.846;2023-04-20T03:16:58;8;;;14.8;;
74483;SDS011;62942;52.462;10.846;2023-04-20T03:18:08;8.4;;;14.9;;
74483;SDS011;62942;52.462;10.846;2023-04-20T03:19:18;8.3;;;18.2;;
74483;SDS011;62942;52.462;10.846;2023-04-20T03:20:28;8.4;;;16.2;;
74483;SDS011;62942;52.462;10.846;2023-04-20T03:21:38;8.2;;;16.3;;
74483;SDS011;62942;52.462;10.846;2023-04-20T03:22:38;8.3;;;16.9;;
74483;SDS011;62942;52.462;10.846;2023-04-20T03:23:48;8;;;14;;
74483;SDS011;62942;52.462;10.846;2023-04-20T03:24:58;8.2;;;14.5;;
74483;SDS011;62942;52.462;10.846;2023-04-20T03:26:08;8.2;;;16.5;;
74483;SDS011;62942;52.462;10.846;2023-04-20T03:27:18;8.5;;;15.9;;
74483;SDS011;62942;52.462;10.846;2023-04-20T03:28:28;8.3;;;15.5;;
74483;SDS011;62942;52.462;10.846;2023-04-20T03:29:28;8;;;14.5;;
74483;SDS011;62942;52.462;10.846;2023-04-20T03:30:28;8.7;;;14.9;;
74483;SDS011;62942;52.462;10.846;2023-04-20T03:31:38;8.5;;;17.3;;
74483;SDS011;62942;52.462;10.846;2023-04-20T03:32:48;8.6;;;16.3;;
74483;SDS011;62942;52.462;10.846;2023-04-20T03:33:58;8.4;;;18;;
74483;SDS011;62942;52.462;10.846;2023-04-20T03:34:58;8.3;;;14.7;;
74483;SDS011;62942;52.462;10.846;2023-04-20T03:36:08;8.2;;;14.3;;
74483;SDS011;62942;52.462;10.846;2023-04-20T03:37:18;8.3;;;15.6;;
74483;SDS011;62942;52.462;10.846;2023-04-20T03:38:29;8.3;;;14.3;;
74483;SDS011;62942;52.462;10.846;2023-04-20T03:39:38;8.3;;;14.7;;
74483;SDS011;62942;52.462;10.846;2023-04-20T03:40:38;8.6;;;16.5;;
74483;SDS011;62942;52.462;10.846;2023-04-20T03:41:48;7.8;;;13.2;;
74483;SDS011;62942;52.462;10.846;2023-04-20T03:42:58;8.1;;;15.6;;
74483;SDS011;62942;52.462;10.846;2023-04-20T03:44:08;8.4;;;16;;
74483;SDS011;62942;52.462;10.846;2023-04-20T03:45:18;8.6;;;16.7;;
74483;SDS011;62942;52.462;10.846;2023-04-20T03:46:18;8.2;;;13.7;;
74483;SDS011;62942;52.462;10.846;2023-04-20T03:47:28;8.2;;;15.9;;
74483;SDS011;62942;52.462;10.846;2023-04-20T03:48:28;8;;;16;;
74483;SDS011;62942;52.462;10.846;2023-04-20T03:49:28;8.4;;;15;;
74483;SDS011;62942;52.462;10.846;2023-04-20T03:50:38;8.3;;;15;;
74483;SDS011;62942;52.462;10.846;2023-04-20T03:51:48;8.4;;;15.1;;
74483;SDS011;62942;52.462;10.846;2023-04-20T03:52:58;8.2;;;15.7;;
74483;SDS011;62942;52.462;10.846;2023-04-20T03:53:58;8.6;;;15.3;;
74483;SDS011;62942;52.462;10.846;2023-04-20T03:55:08;8.2;;;13.8;;
74483;SDS011;62942;52.462;10.846;2023-04-20T03:56:18;8.4;;;13.6;;
74483;SDS011;62942;52.462;10.846;2023-04-20T03:57:18;7.9;;;14;;
74483;SDS011;62942;52.462;10.846;2023-04-20T03:58:18;8.5;;;14.4;;
74483;SDS011;62942;52.462;10.846;2023-04-20T03:59:28;8.6;;;14.9;;
74483;SDS011;62942;52.462;10.846;2023-04-20T04:00:38;8.8;;;15.4;;
74483;SDS011;62942;52.462;10.846;2023-04-20T04:01:48;8.1;;;14.1;;
74483;SDS011;62942;52.462;10.846;2023-04-20T04:02:58;7.7;;;12.9;;
74483;SDS011;62942;52.462;10.846;2023-04-20T04:04:08;8.1;;;15.3;;
74483;SDS011;62942;52.462;10.846;2023-04-20T04:05:18;8.1;;;15.2;;
74483;SDS011;62942;52.462;10.846;2023-04-20T04:06:28;8.2;;;15.5;;
74483;SDS011;62942;52.462;10.846;2023-04-20T04:07:28;8;;;14.2;;
74483;SDS011;62942;52.462;10.846;2023-04-20T04:08:38;8.1;;;14.3;;
74483;SDS011;62942;52.462;10.846;2023-04-20T04:09:48;8.1;;;14.4;;
74483;SDS011;62942;52.462;10.846;2023-04-20T04:10:48;7.9;;;15.9;;
74483;SDS011;62942;52.462;10.846;2023-04-20T04:11:48;8.1;;;15.1;;
74483;SDS011;62942;52.462;10.846;2023-04-20T04:12:48;8;;;14;;
74483;SDS011;62942;52.462;10.846;2023-04-20T04:13:58;7.8;;;13.6;;
74483;SDS011;62942;52.462;10.846;2023-04-20T04:15:09;7.7;;;13.7;;
74483;SDS011;62942;52.462;10.846;2023-04-20T04:16:18;7.7;;;14.4;;
74483;SDS011;62942;52.462;10.846;2023-04-20T04:17:28;7.6;;;13.5;;
74483;SDS011;62942;52.462;10.846;2023-04-20T04:18:40;7.7;;;14.4;;
74483;SDS011;62942;52.462;10.846;2023-04-20T04:19:48;8.3;;;14.9;;
74483;SDS011;62942;52.462;10.846;2023-04-20T04:20:48;7.9;;;13.5;;
74483;SDS011;62942;52.462;10.846;2023-04-20T04:21:58;7.9;;;12.9;;
74483;SDS011;62942;52.462;10.846;2023-04-20T04:22:58;8;;;15.4;;
74483;SDS011;62942;52.462;10.846;2023-04-20T04:23:58;8;;;14.1;;
74483;SDS011;62942;52.462;10.846;2023-04-20T04:25:08;8.3;;;16.3;;
74483;SDS011;62942;52.462;10.846;2023-04-20T04:26:18;8.1;;;14.9;;
74483;SDS011;62942;52.462;10.846;2023-04-20T04:27:28;8.2;;;13.9;;
74483;SDS011;62942;52.462;10.846;2023-04-20T04:28:38;7.9;;;12.4;;
74483;SDS011;62942;52.462;10.846;2023-04-20T04:29:48;8.5;;;15;;
74483;SDS011;62942;52.462;10.846;2023-04-20T04:30:58;8.1;;;14.9;;
74483;SDS011;62942;52.462;10.846;2023-04-20T04:32:08;7.8;;;13;;
74483;SDS011;62942;52.462;10.846;2023-04-20T04:33:18;8.2;;;14.2;;
74483;SDS011;62942;52.462;10.846;2023-04-20T04:34:28;8.5;;;16.7;;
74483;SDS011;62942;52.462;10.846;2023-04-20T04:35:38;8.4;;;15.8;;
74483;SDS011;62942;52.462;10.846;2023-04-20T04:36:48;8.5;;;16.3;;
74483;SDS011;62942;52.462;10.846;2023-04-20T04:37:58;8.4;;;16.6;;
74483;SDS011;62942;52.462;10.846;2023-04-20T04:39:08;9;;;15.6;;
74483;SDS011;62942;52.462;10.846;2023-04-20T04:40:18;8.5;;;15;;
74483;SDS011;62942;52.462;10.846;2023-04-20T04:41:28;8.4;;;14.6;;
74483;SDS011;62942;52.462;10.846;2023-04-20T04:42:38;9;;;15.5;;
74483;SDS011;62942;52.462;10.846;2023-04-20T04:43:48;8.6;;;14.1;;
74483;SDS011;62942;52.462;10.846;2023-04-20T04:44:48;8.8;;;15.8;;
74483;SDS011;62942;52.462;10.846;2023-04-20T04:45:58;8.2;;;16.9;;
74483;SDS011;62942;52.462;10.846;2023-04-20T04:47:08;8.8;;;14.1;;
74483;SDS011;62942;52.462;10.846;2023-04-20T04:48:18;8.4;;;13;;
74483;SDS011;62942;52.462;10.846;2023-04-20T04:49:28;8.7;;;15.1;;
74483;SDS011;62942;52.462;10.846;2023-04-20T04:50:28;8.5;;;13.6;;
74483;SDS011;62942;52.462;10.846;2023-04-20T04:51:38;8.8;;;14;;
74483;SDS011;62942;52.462;10.846;2023-04-20T04:52:48;8.5;;;13.4;;
74483;SDS011;62942;52.462;10.846;2023-04-20T04:53:58;8.7;;;14.7;;
74483;SDS011;62942;52.462;10.846;2023-04-20T04:55:08;8.8;;;14.4;;
74483;SDS011;62942;52.462;10.846;2023-04-20T04:56:08;8.7;;;14.2;;
74483;SDS011;62942;52.462;10.846;2023-04-20T04:57:18;8.8;;;13.6;;
74483;SDS011;62942;52.462;10.846;2023-04-20T04:58:18;8.8;;;14.3;;
74483;SDS011;62942;52.462;10.846;2023-04-20T04:59:28;8.9;;;14.7;;
74483;SDS011;62942;52.462;10.846;2023-04-20T05:00:28;9.1;;;15.4;;
74483;SDS011;62942;52.462;10.846;2023-04-20T05:01:38;9;;;14.8;;
74483;SDS011;62942;52.462;10.846;2023-04-20T05:02:48;9.5;;;15.7;;
74483;SDS011;62942;52.462;10.846;2023-04-20T05:03:59;9.4;;;15.3;;
74483;SDS011;62942;52.462;10.846;2023-04-20T05:05:08;9;;;15.2;;
74483;SDS011;62942;52.462;10.846;2023-04-20T05:06:18;9;;;14.9;;
74483;SDS011;62942;52.462;10.846;2023-04-20T05:07:28;9.2;;;16;;
74483;SDS011;62942;52.462;10.846;2023-04-20T05:08:38;9.3;;;17.6;;
74483;SDS011;62942;52.462;10.846;2023-04-20T05:09:48;9;;;15.3;;
74483;SDS011;62942;52.462;10.846;2023-04-20T05:10:58;8.9;;;15.2;;
74483;SDS011;62942;52.462;10.846;2023-04-20T05:11:58;9.2;;;16.2;;
74483;SDS011;62942;52.462;10.846;2023-04-20T05:13:08;9.1;;;13.8;;
74483;SDS011;62942;52.462;10.846;2023-04-20T05:14:18;8.8;;;16;;
74483;SDS011;62942;52.462;10.846;2023-04-20T05:15:28;9.3;;;14.6;;
74483;SDS011;62942;52.462;10.846;2023-04-20T05:16:38;9.1;;;15.7;;
74483;SDS011;62942;52.462;10.846;2023-04-20T05:17:48;9.1;;;15.1;;
74483;SDS011;62942;52.462;10.846;2023-04-20T05:18:58;9.4;;;14.9;;
74483;SDS011;62942;52.462;10.846;2023-04-20T05:19:58;9.6;;;15.3;;
74483;SDS011;62942;52.462;10.846;2023-04-20T05:21:08;9.6;;;15.1;;
74483;SDS011;62942;52.462;10.846;2023-04-20T05:22:18;9.2;;;15.6;;
74483;SDS011;62942;52.462;10.846;2023-04-20T05:23:28;9.2;;;15.1;;
74483;SDS011;62942;52.462;10.846;2023-04-20T05:24:38;9;;;15.5;;
74483;SDS011;62942;52.462;10.846;2023-04-20T05:25:48;9.3;;;14.7;;
74483;SDS011;62942;52.462;10.846;2023-04-20T05:26:58;9.6;;;16.6;;
74483;SDS011;62942;52.462;10.846;2023-04-20T05:28:08;9.8;;;15.3;;
74483;SDS011;62942;52.462;10.846;2023-04-20T05:29:18;9.8;;;16.9;;
74483;SDS011;62942;52.462;10.846;2023-04-20T05:30:28;9.6;;;16.2;;
74483;SDS011;62942;52.462;10.846;2023-04-20T05:31:28;9.3;;;14.7;;
74483;SDS011;62942;52.462;10.846;2023-04-20T05:32:38;10;;;17.1;;
74483;SDS011;62942;52.462;10.846;2023-04-20T05:33:48;9.8;;;16;;
74483;SDS011;62942;52.462;10.846;2023-04-20T05:34:58;9.4;;;15.2;;
74483;SDS011;62942;52.462;10.846;2023-04-20T05:36:08;9.6;;;17.1;;
74483;SDS011;62942;52.462;10.846;2023-04-20T05:37:08;9.6;;;16.7;;
74483;SDS011;62942;52.462;10.846;2023-04-20T05:38:18;9.9;;;16.5;;
74483;SDS011;62942;52.462;10.846;2023-04-20T05:39:28;10.2;;;16.9;;
74483;SDS011;62942;52.462;10.846;2023-04-20T05:40:38;9.8;;;16.5;;
74483;SDS011;62942;52.462;10.846;2023-04-20T05:41:38;9.8;;;15.4;;
74483;SDS011;62942;52.462;10.846;2023-04-20T05:42:38;9.7;;;15.9;;
74483;SDS011;62942;52.462;10.846;2023-04-20T05:43:48;10.1;;;16.6;;
74483;SDS011;62942;52.462;10.846;2023-04-20T05:44:58;10.2;;;18;;
74483;SDS011;62942;52.462;10.846;2023-04-20T05:46:08;10.1;;;15.5;;
74483;SDS011;62942;52.462;10.846;2023-04-20T05:47:18;9.7;;;16.3;;
74483;SDS011;62942;52.462;10.846;2023-04-20T05:48:28;9.7;;;16.4;;
74483;SDS011;62942;52.462;10.846;2023-04-20T05:49:28;9.9;;;15.5;;
74483;SDS011;62942;52.462;10.846;2023-04-20T05:50:38;9.7;;;15.9;;
74483;SDS011;62942;52.462;10.846;2023-04-20T05:51:38;10.1;;;16.1;;
74483;SDS011;62942;52.462;10.846;2023-04-20T05:52:48;9.8;;;14.8;;
74483;SDS011;62942;52.462;10.846;2023-04-20T05:53:58;9.7;;;14.3;;
74483;SDS011;62942;52.462;10.846;2023-04-20T05:54:58;9.4;;;15.4;;
74483;SDS011;62942;52.462;10.846;2023-04-20T05:56:08;10.1;;;17.3;;
74483;SDS011;62942;52.462;10.846;2023-04-20T05:57:08;10;;;16.2;;
74483;SDS011;62942;52.462;10.846;2023-04-20T05:58:18;9.7;;;15.3;;
74483;SDS011;62942;52.462;10.846;2023-04-20T05:59:18;9.5;;;15.7;;
74483;SDS011;62942;52.462;10.846;2023-04-20T06:00:28;9.2;;;15;;
74483;SDS011;62942;52.462;10.846;2023-04-20T06:01:38;9.5;;;14.7;;
74483;SDS011;62942;52.462;10.846;2023-04-20T06:02:48;9.8;;;15.4;;
74483;SDS011;62942;52.462;10.846;2023-04-20T06:03:48;9.7;;;14.6;;
74483;SDS011;62942;52.462;10.846;2023-04-20T06:04:58;9.8;;;16;;
74483;SDS011;62942;52.462;10.846;2023-04-20T06:06:08;9.7;;;14.3;;
74483;SDS011;62942;52.462;10.846;2023-04-20T06:07:08;9.6;;;15.6;;
74483;SDS011;62942;52.462;10.846;2023-04-20T06:08:18;9.6;;;16.4;;
74483;SDS011;62942;52.462;10.846;2023-04-20T06:09:28;9.7;;;15.9;;
74483;SDS011;62942;52.462;10.846;2023-04-20T06:10:28;9.8;;;16;;
74483;SDS011;62942;52.462;10.846;2023-04-20T06:11:38;9.7;;;16.2;;
74483;SDS011;62942;52.462;10.846;2023-04-20T06:12:48;9.6;;;15.9;;
74483;SDS011;62942;52.462;10.846;2023-04-20T06:13:48;9.8;;;15;;
74483;SDS011;62942;52.462;10.846;2023-04-20T06:14:58;10;;;14.7;;
74483;SDS011;62942;52.462;10.846;2023-04-20T06:16:08;9.8;;;14.4;;
74483;SDS011;62942;52.462;10.846;2023-04-20T06:17:18;9.8;;;15.8;;
74483;SDS011;62942;52.462;10.846;2023-04-20T06:18:28;9.5;;;14;;
74483;SDS011;62942;52.462;10.846;2023-04-20T06:19:38;9.3;;;13.8;;
74483;SDS011;62942;52.462;10.846;2023-04-20T06:20:48;10.2;;;15.9;;
74483;SDS011;62942;52.462;10.846;2023-04-20T06:21:48;9.6;;;14.5;;
74483;SDS011;62942;52.462;10.846;2023-04-20T06:22:58;10.3;;;14.4;;
74483;SDS011;62942;52.462;10.846;2023-04-20T06:24:08;10.1;;;15.6;;
74483;SDS011;62942;52.462;10.846;2023-04-20T06:25:08;10.2;;;15.1;;
74483;SDS011;62942;52.462;10.846;2023-04-20T06:26:08;10.1;;;15.3;;
74483;SDS011;62942;52.462;10.846;2023-04-20T06:27:18;10.3;;;14.6;;
74483;SDS011;62942;52.462;10.846;2023-04-20T06:28:28;10.4;;;15.1;;
74483;SDS011;62942;52.462;10.846;2023-04-20T06:29:28;10.3;;;16.5;;
74483;SDS011;62942;52.462;10.846;2023-04-20T06:30:38;10.3;;;14.7;;
74483;SDS011;62942;52.462;10.846;2023-04-20T06:31:48;10.5;;;15.1;;
74483;SDS011;62942;52.462;10.846;2023-04-20T06:32:58;10.7;;;16.4;;
74483;SDS011;62942;52.462;10.846;2023-04-20T06:34:08;10.4;;;13.9;;
74483;SDS011;62942;52.462;10.846;2023-04-20T06:35:18;10.2;;;15.1;;
74483;SDS011;62942;52.462;10.846;2023-04-20T06:36:18;10.7;;;14.4;;
74483;SDS011;62942;52.462;10.846;2023-04-20T06:37:28;10.4;;;15.2;;
74483;SDS011;62942;52.462;10.846;2023-04-20T06:38:28;10.4;;;15.2;;
74483;SDS011;62942;52.462;10.846;2023-04-20T06:39:38;10.6;;;15.4;;
74483;SDS011;62942;52.462;10.846;2023-04-20T06:40:38;10.4;;;15.5;;
74483;SDS011;62942;52.462;10.846;2023-04-20T06:41:48;10.9;;;15.1;;
74483;SDS011;62942;52.462;10.846;2023-04-20T06:42:58;10.3;;;15.6;;
74483;SDS011;62942;52.462;10.846;2023-04-20T06:44:08;10.2;;;14.9;;
74483;SDS011;62942;52.462;10.846;2023-04-20T06:45:18;10.3;;;15.9;;
74483;SDS011;62942;52.462;10.846;2023-04-20T06:46:28;10.7;;;15.1;;